createdAt,value
2022-11-12T00:00:47.539Z,18.14
2022-11-12T00:03:15.424Z,18.17
2022-11-12T00:05:43.258Z,18.19
2022-11-12T00:08:11.171Z,18.21
2022-11-12T00:10:39.109Z,18.23
2022-11-12T00:13:08.407Z,18.25
2022-11-12T00:15:36.284Z,18.26
2022-11-12T00:18:04.272Z,18.28
2022-11-12T00:20:32.127Z,18.29
2022-11-12T00:23:00.111Z,18.27
2022-11-12T00:25:28.395Z,18.25
2022-11-12T00:27:59.576Z,18.25
2022-11-12T00:30:28.877Z,18.23
2022-11-12T00:32:56.744Z,18.22
2022-11-12T00:35:24.622Z,18.21
2022-11-12T00:37:56.726Z,18.19
2022-11-12T00:40:25.222Z,18.15
2022-11-12T00:42:54.841Z,18.14
2022-11-12T00:45:22.804Z,18.13
2022-11-12T00:47:54.918Z,18.10
2022-11-12T00:50:22.800Z,18.08
2022-11-12T00:52:52.876Z,18.08
2022-11-12T00:55:20.800Z,18.07
2022-11-12T00:57:48.636Z,18.08
2022-11-12T01:00:17.194Z,18.11
2022-11-12T01:02:50.448Z,18.11
2022-11-12T01:05:20.809Z,18.13
2022-11-12T01:07:54.747Z,18.13
2022-11-12T01:10:23.762Z,18.17
2022-11-12T01:12:51.630Z,18.12
2022-11-12T01:15:19.632Z,18.14
2022-11-12T01:17:47.527Z,18.14
2022-11-12T01:20:15.506Z,18.12
2022-11-12T01:22:44.773Z,18.09
2022-11-12T01:25:12.598Z,18.06
2022-11-12T01:27:40.474Z,18.04
2022-11-12T01:30:09.463Z,18.01
2022-11-12T01:32:37.899Z,17.94
2022-11-12T01:35:06.749Z,17.88
2022-11-12T01:37:34.611Z,17.82
2022-11-12T01:40:03.962Z,17.73
2022-11-12T01:42:32.264Z,17.67
2022-11-12T01:45:00.169Z,17.62
2022-11-12T01:47:28.877Z,17.60
2022-11-12T01:49:57.993Z,17.54
2022-11-12T01:52:28.626Z,17.48
2022-11-12T01:54:57.534Z,17.45
2022-11-12T01:57:33.459Z,17.38
2022-11-12T02:00:06.196Z,17.28
2022-11-12T02:02:34.202Z,17.18
2022-11-12T02:05:02.144Z,17.06
2022-11-12T02:07:30.048Z,16.97
2022-11-12T02:09:57.898Z,16.88
2022-11-12T02:12:44.953Z,16.80
2022-11-12T02:15:12.848Z,16.68
2022-11-12T02:17:40.722Z,16.60
2022-11-12T02:20:10.907Z,16.55
2022-11-12T02:22:40.143Z,16.48
2022-11-12T02:25:09.779Z,16.41
2022-11-12T02:27:37.692Z,16.34
2022-11-12T02:30:06.487Z,16.28
2022-11-12T02:32:34.645Z,16.23
2022-11-12T02:35:02.547Z,16.18
2022-11-12T02:37:30.448Z,16.11
2022-11-12T02:39:59.797Z,16.09
2022-11-12T02:42:27.662Z,16.08
2022-11-12T02:44:55.496Z,16.08
2022-11-12T02:47:23.356Z,16.07
2022-11-12T02:49:51.212Z,16.07
2022-11-12T02:52:19.139Z,16.06
2022-11-12T02:54:47.020Z,16.04
2022-11-12T02:57:16.300Z,16.04
2022-11-12T02:59:44.188Z,15.98
2022-11-12T03:02:12.034Z,15.99
2022-11-12T03:04:39.911Z,15.95
2022-11-12T03:07:07.840Z,15.94
2022-11-12T03:09:35.766Z,15.89
2022-11-12T03:12:03.736Z,15.83
2022-11-12T03:14:33.022Z,15.79
2022-11-12T03:17:00.934Z,15.75
2022-11-12T03:19:28.777Z,15.71
2022-11-12T03:21:56.661Z,15.69
2022-11-12T03:24:24.580Z,15.67
2022-11-12T03:26:52.605Z,15.63
2022-11-12T03:29:20.473Z,15.61
2022-11-12T03:31:49.728Z,15.56
2022-11-12T03:34:17.611Z,15.53
2022-11-12T03:36:45.498Z,15.50
2022-11-12T03:39:13.362Z,15.47
2022-11-12T03:41:41.237Z,15.44
2022-11-12T03:44:09.121Z,15.45
2022-11-12T03:46:41.532Z,15.41
2022-11-12T03:49:13.410Z,15.39
2022-11-12T03:51:41.284Z,15.37
2022-11-12T03:54:09.159Z,15.36
2022-11-12T03:56:37.321Z,15.34
2022-11-12T03:59:05.521Z,15.22
2022-11-12T04:01:33.681Z,15.33
2022-11-12T04:04:01.616Z,15.32
2022-11-12T04:06:48.226Z,15.34
2022-11-12T04:09:16.120Z,15.30
2022-11-12T04:11:44.305Z,15.31
2022-11-12T04:14:11.214Z,15.32
2022-11-12T04:16:56.630Z,15.33
2022-11-12T04:19:41.977Z,15.32
2022-11-12T04:22:11.933Z,15.32
2022-11-12T04:24:58.216Z,15.35
2022-11-12T04:27:27.386Z,15.39
2022-11-12T04:30:12.500Z,15.42
2022-11-12T04:32:41.393Z,15.45
2022-11-12T04:35:09.887Z,15.47
2022-11-12T04:37:48.548Z,15.49
2022-11-12T04:40:34.883Z,15.51
2022-11-12T04:43:20.431Z,15.52
2022-11-12T04:45:49.434Z,15.55
2022-11-12T04:48:17.413Z,15.65
2022-11-12T04:50:45.894Z,15.70
2022-11-12T04:53:15.246Z,15.76
2022-11-12T04:55:43.126Z,15.81
2022-11-12T04:58:11.009Z,15.89
2022-11-12T05:00:38.899Z,15.95
2022-11-12T05:03:06.851Z,15.99
2022-11-12T05:05:34.759Z,16.01
2022-11-12T05:08:02.632Z,16.06
2022-11-12T05:10:32.006Z,16.05
2022-11-12T05:12:59.906Z,16.02
2022-11-12T05:15:27.820Z,15.98
2022-11-12T05:17:55.710Z,15.89
2022-11-12T05:20:23.638Z,15.83
2022-11-12T05:23:05.729Z,15.76
2022-11-12T05:25:36.352Z,15.67
2022-11-12T05:28:06.711Z,15.62
2022-11-12T05:30:35.230Z,15.56
2022-11-12T05:33:03.162Z,15.52
2022-11-12T05:35:31.093Z,15.47
2022-11-12T05:37:58.938Z,15.42
2022-11-12T05:40:26.823Z,15.40
2022-11-12T05:42:56.199Z,15.40
2022-11-12T05:45:24.074Z,15.38
2022-11-12T05:47:51.986Z,15.32
2022-11-12T05:50:19.851Z,15.34
2022-11-12T05:52:47.764Z,15.33
2022-11-12T05:55:15.910Z,15.32
2022-11-12T05:57:43.822Z,15.32
2022-11-12T06:00:14.151Z,15.30
2022-11-12T06:02:43.134Z,15.26
2022-11-12T06:05:11.173Z,15.26
2022-11-12T06:07:39.034Z,15.23
2022-11-12T06:10:07.754Z,15.19
2022-11-12T06:12:35.607Z,15.20
2022-11-12T06:15:03.535Z,15.19
2022-11-12T06:17:32.773Z,15.16
2022-11-12T06:20:00.723Z,15.17
2022-11-12T06:22:28.671Z,15.18
2022-11-12T06:24:56.547Z,15.17
2022-11-12T06:27:24.708Z,15.19
2022-11-12T06:29:52.647Z,15.18
2022-11-12T06:32:20.546Z,15.20
2022-11-12T06:34:50.583Z,15.18
2022-11-12T06:37:18.443Z,15.17
2022-11-12T06:39:46.355Z,15.16
2022-11-12T06:42:14.241Z,15.17
2022-11-12T06:44:42.088Z,15.16
2022-11-12T06:47:10.063Z,15.20
2022-11-12T06:49:38.016Z,15.22
2022-11-12T06:52:08.015Z,15.21
2022-11-12T06:54:37.853Z,15.19
2022-11-12T06:57:05.778Z,15.18
2022-11-12T06:59:33.711Z,15.19
2022-11-12T07:02:01.590Z,15.22
2022-11-12T07:04:29.576Z,15.24
2022-11-12T07:06:57.537Z,15.27
2022-11-12T07:09:26.872Z,15.29
2022-11-12T07:11:54.732Z,15.29
2022-11-12T07:14:22.610Z,15.30
2022-11-12T07:16:50.554Z,15.32
2022-11-12T07:19:18.443Z,15.31
2022-11-12T07:21:46.381Z,15.33
2022-11-12T07:24:14.274Z,15.32
2022-11-12T07:26:47.469Z,15.36
2022-11-12T07:29:30.084Z,15.35
2022-11-12T07:32:06.164Z,15.37
2022-11-12T07:34:34.384Z,15.38
2022-11-12T07:37:02.314Z,15.38
2022-11-12T07:39:30.271Z,15.37
2022-11-12T07:41:59.773Z,15.36
2022-11-12T07:44:27.631Z,15.37
2022-11-12T07:46:55.565Z,15.38
2022-11-12T07:49:23.462Z,15.38
2022-11-12T07:51:51.364Z,15.36
2022-11-12T07:54:19.562Z,15.37
2022-11-12T07:56:47.435Z,15.31
2022-11-12T07:59:16.680Z,15.41
2022-11-12T08:01:45.413Z,15.44
2022-11-12T08:04:14.119Z,15.49
2022-11-12T08:06:42.234Z,15.53
2022-11-12T08:09:10.613Z,15.56
2022-11-12T08:11:38.559Z,15.61
2022-11-12T08:14:06.537Z,15.64
2022-11-12T08:16:35.924Z,15.68
2022-11-12T08:19:03.795Z,15.75
2022-11-12T08:21:31.665Z,15.82
2022-11-12T08:23:59.616Z,15.90
2022-11-12T08:26:27.579Z,15.97
2022-11-12T08:28:55.562Z,16.03
2022-11-12T08:31:23.590Z,16.10
2022-11-12T08:33:52.903Z,16.20
2022-11-12T08:36:20.848Z,16.27
2022-11-12T08:38:48.795Z,16.34
2022-11-12T08:41:17.719Z,16.39
2022-11-12T08:43:45.627Z,16.48
2022-11-12T08:46:13.629Z,16.56
2022-11-12T08:48:41.579Z,16.65
2022-11-12T08:51:10.855Z,16.74
2022-11-12T08:53:38.770Z,16.83
2022-11-12T08:56:06.954Z,16.91
2022-11-12T08:58:34.863Z,16.97
2022-11-12T09:01:05.515Z,17.02
2022-11-12T09:03:33.414Z,17.15
2022-11-12T09:06:03.854Z,17.19
2022-11-12T09:08:34.181Z,17.27
2022-11-12T09:11:02.056Z,17.38
2022-11-12T09:13:30.065Z,17.45
2022-11-12T09:16:02.577Z,17.53
2022-11-12T09:18:35.153Z,17.58
2022-11-12T09:21:04.275Z,17.68
2022-11-12T09:23:34.768Z,17.71
2022-11-12T09:26:02.812Z,17.83
2022-11-12T09:28:30.817Z,17.89
2022-11-12T09:30:58.891Z,17.96
2022-11-12T09:33:28.314Z,18.01
2022-11-12T09:35:56.638Z,18.08
2022-11-12T09:38:24.907Z,18.16
2022-11-12T09:41:19.029Z,18.23
2022-11-12T09:43:49.863Z,18.23
2022-11-12T09:46:28.022Z,18.34
2022-11-12T09:49:01.655Z,18.45
2022-11-12T09:51:31.395Z,18.53
2022-11-12T09:53:59.798Z,18.58
2022-11-12T09:56:29.897Z,18.64
2022-11-12T09:58:57.869Z,18.69
2022-11-12T10:01:38.849Z,18.75
2022-11-12T10:04:17.192Z,18.80
2022-11-12T10:06:46.891Z,18.82
2022-11-12T10:09:17.606Z,18.89
2022-11-12T10:12:14.550Z,18.94
2022-11-12T10:14:50.178Z,19.03
2022-11-12T10:17:19.948Z,19.10
2022-11-12T10:20:01.246Z,19.17
2022-11-12T10:22:40.861Z,19.24
2022-11-12T10:25:15.699Z,19.35
2022-11-12T10:27:45.647Z,19.43
2022-11-12T10:30:20.014Z,19.67
2022-11-12T10:32:50.671Z,19.95
2022-11-12T10:35:19.693Z,19.74
2022-11-12T10:37:49.328Z,19.58
2022-11-12T10:40:29.686Z,19.79
2022-11-12T10:42:59.968Z,20.08
2022-11-12T10:45:27.873Z,20.38
2022-11-12T10:47:55.800Z,20.69
2022-11-12T10:50:24.045Z,20.95
2022-11-12T10:52:56.676Z,21.15
2022-11-12T10:55:25.217Z,21.32
2022-11-12T10:58:08.632Z,21.44
2022-11-12T11:00:36.576Z,21.58
2022-11-12T11:03:07.028Z,21.73
2022-11-12T11:05:35.883Z,21.87
2022-11-12T11:08:03.864Z,22.07
2022-11-12T11:10:32.500Z,22.24
2022-11-12T11:13:21.208Z,22.44
2022-11-12T11:16:00.026Z,22.64
2022-11-12T11:18:28.615Z,22.80
2022-11-12T11:21:02.736Z,22.98
2022-11-12T11:23:32.421Z,22.97
2022-11-12T11:26:19.647Z,22.97
2022-11-12T11:28:51.132Z,22.96
2022-11-12T11:31:22.144Z,22.80
2022-11-12T11:33:50.982Z,22.79
2022-11-12T11:36:23.213Z,22.95
2022-11-12T11:38:57.536Z,23.19
2022-11-12T11:41:33.063Z,23.47
2022-11-12T11:44:13.642Z,23.72
2022-11-12T11:46:48.190Z,23.91
2022-11-12T11:49:28.442Z,23.99
2022-11-12T11:51:58.317Z,24.07
2022-11-12T11:54:52.688Z,24.25
2022-11-12T11:57:22.669Z,24.25
2022-11-12T12:00:02.813Z,24.35
2022-11-12T12:02:40.400Z,24.36
2022-11-12T12:05:12.970Z,24.18
2022-11-12T12:07:44.370Z,24.01
2022-11-12T12:10:18.520Z,23.95
2022-11-12T12:12:52.727Z,23.79
2022-11-12T12:15:45.460Z,23.89
2022-11-12T12:18:18.354Z,23.67
2022-11-12T12:20:49.667Z,23.90
2022-11-12T12:23:23.112Z,24.25
2022-11-12T12:25:51.419Z,24.72
2022-11-12T12:28:27.058Z,25.09
2022-11-12T12:30:59.690Z,25.27
2022-11-12T12:33:30.243Z,25.37
2022-11-12T12:36:00.605Z,25.23
2022-11-12T12:38:30.678Z,25.20
2022-11-12T12:41:01.996Z,25.05
2022-11-12T12:43:33.292Z,24.55
2022-11-12T12:46:02.578Z,23.96
2022-11-12T12:48:31.411Z,23.44
2022-11-12T12:50:59.425Z,23.08
2022-11-12T12:53:34.600Z,22.76
2022-11-12T12:56:03.162Z,22.51
2022-11-12T12:58:31.749Z,22.29
2022-11-12T13:01:05.175Z,22.17
2022-11-12T13:03:53.325Z,22.11
2022-11-12T13:06:28.983Z,22.07
2022-11-12T13:08:59.126Z,22.15
2022-11-12T13:12:06.404Z,22.21
2022-11-12T13:15:05.627Z,22.21
2022-11-12T13:17:51.309Z,22.10
2022-11-12T13:20:40.646Z,22.10
2022-11-12T13:24:04.644Z,22.06
2022-11-12T13:26:52.555Z,22.00
2022-11-12T13:29:23.191Z,21.98
2022-11-12T13:31:51.155Z,22.01
2022-11-12T13:34:26.159Z,22.01
2022-11-12T13:36:57.443Z,21.96
2022-11-12T13:39:25.352Z,21.92
2022-11-12T13:42:15.519Z,21.90
2022-11-12T13:44:43.497Z,21.91
2022-11-12T13:47:13.891Z,21.92
2022-11-12T13:49:44.158Z,21.91
2022-11-12T13:52:13.223Z,22.06
2022-11-12T13:54:41.101Z,22.20
2022-11-12T13:57:28.873Z,22.41
2022-11-12T14:00:24.415Z,22.49
2022-11-12T14:02:54.827Z,22.55
2022-11-12T14:05:24.732Z,22.55
2022-11-12T14:08:10.795Z,22.48
2022-11-12T14:10:45.892Z,22.52
2022-11-12T14:13:40.947Z,22.62
2022-11-12T14:16:26.767Z,22.75
2022-11-12T14:19:06.514Z,22.41
2022-11-12T14:21:35.773Z,22.68
2022-11-12T14:24:03.888Z,23.07
2022-11-12T14:26:36.926Z,23.46
2022-11-12T14:29:04.799Z,23.81
2022-11-12T14:31:32.893Z,24.09
2022-11-12T14:34:21.834Z,24.35
2022-11-12T14:36:52.768Z,24.54
2022-11-12T14:39:20.648Z,24.61
2022-11-12T14:41:49.439Z,24.72
2022-11-12T14:44:19.251Z,24.75
2022-11-12T14:46:48.478Z,24.56
2022-11-12T14:49:19.413Z,24.22
2022-11-12T14:51:48.928Z,23.79
2022-11-12T14:54:22.476Z,23.47
2022-11-12T14:56:50.423Z,23.13
2022-11-12T14:59:18.316Z,22.81
2022-11-12T15:04:54.709Z,22.24
2022-11-12T15:07:26.972Z,21.93
2022-11-12T15:09:56.270Z,21.86
2022-11-12T15:12:25.249Z,21.69
2022-11-12T15:14:53.340Z,21.58
2022-11-12T15:17:28.452Z,21.47
2022-11-12T15:20:01.092Z,21.42
2022-11-12T15:22:29.080Z,21.40
2022-11-12T15:24:58.588Z,21.38
2022-11-12T15:27:35.810Z,21.37
2022-11-12T15:30:20.408Z,21.35
2022-11-12T15:32:48.352Z,21.35
2022-11-12T15:35:35.677Z,21.34
2022-11-12T15:38:04.698Z,21.27
2022-11-12T15:40:35.152Z,21.17
2022-11-12T15:43:03.062Z,21.13
2022-11-12T15:45:31.145Z,21.05
2022-11-12T15:47:58.995Z,20.94
2022-11-12T15:50:26.935Z,20.80
2022-11-12T15:52:55.392Z,20.66
2022-11-12T15:55:23.302Z,20.53
2022-11-12T15:57:53.268Z,20.40
2022-11-12T16:00:22.028Z,20.30
2022-11-12T16:02:53.108Z,20.19
2022-11-12T16:05:21.016Z,20.10
2022-11-12T16:07:48.914Z,20.03
2022-11-12T16:10:17.720Z,19.93
2022-11-12T16:12:46.099Z,19.86
2022-11-12T16:15:16.003Z,19.78
2022-11-12T16:17:43.868Z,19.69
2022-11-12T16:20:16.149Z,19.62
2022-11-12T16:22:44.187Z,19.57
2022-11-12T16:25:13.432Z,19.53
2022-11-12T16:27:41.343Z,19.51
2022-11-12T16:30:16.392Z,19.48
2022-11-12T16:32:44.406Z,19.44
2022-11-12T16:35:12.279Z,19.38
2022-11-12T16:37:40.427Z,19.38
2022-11-12T16:40:10.866Z,19.36
2022-11-12T16:42:45.455Z,19.33
2022-11-12T16:45:15.881Z,19.30
2022-11-12T16:47:45.263Z,19.27
2022-11-12T16:50:13.493Z,19.28
2022-11-12T16:52:41.472Z,19.24
2022-11-12T16:55:10.383Z,19.21
2022-11-12T16:57:38.734Z,19.21
2022-11-12T17:00:07.627Z,19.18
2022-11-12T17:02:40.719Z,19.09
2022-11-12T17:05:16.101Z,19.13
2022-11-12T17:07:44.120Z,19.11
2022-11-12T17:10:12.653Z,19.07
2022-11-12T17:12:40.591Z,19.03
2022-11-12T17:15:09.565Z,19.03
2022-11-12T17:17:38.827Z,18.99
2022-11-12T17:20:07.798Z,18.98
2022-11-12T17:22:35.743Z,18.94
2022-11-12T17:25:03.634Z,18.91
2022-11-12T17:27:31.588Z,18.89
2022-11-12T17:30:00.010Z,18.87
2022-11-12T17:32:27.994Z,18.84
2022-11-12T17:34:57.252Z,18.83
2022-11-12T17:37:25.346Z,18.84
2022-11-12T17:39:53.325Z,18.85
2022-11-12T17:42:21.247Z,18.90
2022-11-12T17:44:49.144Z,18.89
2022-11-12T17:47:17.056Z,18.88
2022-11-12T17:49:45.077Z,18.84
2022-11-12T17:52:14.461Z,18.85
2022-11-12T17:54:42.880Z,18.82
2022-11-12T17:57:10.902Z,18.79
2022-11-12T17:59:38.805Z,18.77
2022-11-12T18:02:06.663Z,18.74
2022-11-12T18:04:35.271Z,18.68
2022-11-12T18:07:03.197Z,18.67
2022-11-12T18:09:32.728Z,18.62
2022-11-12T18:12:01.167Z,18.61
2022-11-12T18:14:29.066Z,18.57
2022-11-12T18:16:59.180Z,18.56
2022-11-12T18:19:27.052Z,18.52
2022-11-12T18:21:56.968Z,18.50
2022-11-12T18:24:25.549Z,18.45
2022-11-12T18:26:54.793Z,18.42
2022-11-12T18:29:22.655Z,18.41
2022-11-12T18:31:50.570Z,18.25
2022-11-12T18:34:18.480Z,18.33
2022-11-12T18:36:46.347Z,18.31
2022-11-12T18:39:14.824Z,18.27
2022-11-12T18:41:42.703Z,18.24
2022-11-12T18:44:11.987Z,18.23
2022-11-12T18:46:39.875Z,18.19
2022-11-12T18:49:08.008Z,18.20
2022-11-12T18:51:36.306Z,18.17
2022-11-12T18:54:04.644Z,18.17
2022-11-12T18:56:32.557Z,18.15
2022-11-12T18:59:00.578Z,18.16
2022-11-12T19:01:30.012Z,18.14
2022-11-12T19:03:58.114Z,18.13
2022-11-12T19:06:26.070Z,18.11
2022-11-12T19:08:59.316Z,18.11
2022-11-12T19:11:27.279Z,18.07
2022-11-12T19:13:55.350Z,17.94
2022-11-12T19:16:23.950Z,18.03
2022-11-12T19:18:53.273Z,18.07
2022-11-12T19:21:22.107Z,18.06
2022-11-12T19:23:53.804Z,18.06
2022-11-12T19:26:22.671Z,18.05
2022-11-12T19:28:50.767Z,18.06
2022-11-12T19:31:19.467Z,18.07
2022-11-12T19:33:47.843Z,18.09
2022-11-12T19:36:18.130Z,18.07
2022-11-12T19:38:46.054Z,18.07
2022-11-12T19:41:19.355Z,18.07
2022-11-12T19:43:47.817Z,18.11
2022-11-12T19:46:15.772Z,18.09
2022-11-12T19:48:43.837Z,18.08
2022-11-12T19:51:12.078Z,18.08
2022-11-12T19:53:44.323Z,18.08
2022-11-12T19:56:14.121Z,18.09
2022-11-12T19:58:45.230Z,18.07
2022-11-12T20:01:14.436Z,18.07
2022-11-12T20:03:42.426Z,18.05
2022-11-12T20:06:11.958Z,18.06
2022-11-12T20:08:41.733Z,18.06
2022-11-12T20:11:10.022Z,18.05
2022-11-12T20:13:37.923Z,18.03
2022-11-12T20:16:09.077Z,18.00
2022-11-12T20:18:36.968Z,17.99
2022-11-12T20:21:05.624Z,17.97
2022-11-12T20:23:33.940Z,17.96
2022-11-12T20:26:06.564Z,17.96
2022-11-12T20:28:34.514Z,17.94
2022-11-12T20:31:03.718Z,17.95
2022-11-12T20:33:31.657Z,17.92
2022-11-12T20:36:04.798Z,17.91
2022-11-12T20:38:32.651Z,17.92
2022-11-12T20:41:02.675Z,17.88
2022-11-12T20:43:32.006Z,17.89
2022-11-12T20:45:59.954Z,17.86
2022-11-12T20:48:28.001Z,17.87
2022-11-12T20:51:22.782Z,17.82
2022-11-12T20:53:55.962Z,17.83
2022-11-12T20:56:27.860Z,17.81
2022-11-12T20:58:57.131Z,17.83
2022-11-12T21:01:25.426Z,17.81
2022-11-12T21:03:53.591Z,17.80
2022-11-12T21:06:22.793Z,17.77
2022-11-12T21:08:50.659Z,17.76
2022-11-12T21:11:19.678Z,17.74
2022-11-12T21:13:47.645Z,17.75
2022-11-12T21:16:17.059Z,17.73
2022-11-12T21:18:45.013Z,17.74
2022-11-12T21:21:14.419Z,17.70
2022-11-12T21:23:43.549Z,17.69
2022-11-12T21:26:13.546Z,17.72
2022-11-12T21:28:43.203Z,17.70
2022-11-12T21:31:11.974Z,17.70
2022-11-12T21:33:41.284Z,17.64
2022-11-12T21:36:15.879Z,17.64
2022-11-12T21:38:44.436Z,17.60
2022-11-12T21:41:13.576Z,17.60
2022-11-12T21:43:43.150Z,17.60
2022-11-12T21:46:11.581Z,17.60
2022-11-12T21:48:39.413Z,17.62
2022-11-12T21:51:09.467Z,17.61
2022-11-12T21:53:37.352Z,17.61
2022-11-12T21:56:05.511Z,17.62
2022-11-12T21:58:33.517Z,17.61
2022-11-12T22:01:08.916Z,17.64
2022-11-12T22:03:36.850Z,17.62
2022-11-12T22:06:04.927Z,17.64
2022-11-12T22:08:34.354Z,17.64
2022-11-12T22:11:03.580Z,17.63
2022-11-12T22:13:31.482Z,17.65
2022-11-12T22:15:59.466Z,17.64
2022-11-12T22:18:27.544Z,17.63
2022-11-12T22:20:59.170Z,17.63
2022-11-12T22:23:27.137Z,17.64
2022-11-12T22:25:58.800Z,17.63
2022-11-12T22:28:27.037Z,17.61
2022-11-12T22:30:55.137Z,17.58
2022-11-12T22:33:23.035Z,17.58
2022-11-12T22:35:50.981Z,17.58
2022-11-12T22:38:18.819Z,17.56
2022-11-12T22:40:46.709Z,17.55
2022-11-12T22:43:15.971Z,17.54
2022-11-12T22:45:43.844Z,17.54
2022-11-12T22:48:11.742Z,17.53
2022-11-12T22:50:39.679Z,17.47
2022-11-12T22:53:07.572Z,17.50
2022-11-12T22:55:35.576Z,17.48
2022-11-12T22:58:03.474Z,17.48
2022-11-12T23:00:33.179Z,17.47
2022-11-12T23:03:01.054Z,17.47
2022-11-12T23:05:29.012Z,17.46
2022-11-12T23:07:56.868Z,17.45
2022-11-12T23:10:24.714Z,17.46
2022-11-12T23:12:52.599Z,17.44
2022-11-12T23:15:20.453Z,17.46
2022-11-12T23:17:49.958Z,17.44
2022-11-12T23:20:18.023Z,17.45
2022-11-12T23:22:45.928Z,17.44
2022-11-12T23:25:13.815Z,17.42
2022-11-12T23:27:41.771Z,17.42
2022-11-12T23:30:10.551Z,17.43
2022-11-12T23:32:38.421Z,17.44
2022-11-12T23:35:08.430Z,17.40
2022-11-12T23:37:36.300Z,17.41
2022-11-12T23:40:04.172Z,17.40
2022-11-12T23:42:32.036Z,17.40
2022-11-12T23:44:59.907Z,17.38
2022-11-12T23:47:27.809Z,17.38
2022-11-12T23:49:55.767Z,17.37
2022-11-12T23:52:25.059Z,17.36
2022-11-12T23:54:52.913Z,17.36
2022-11-12T23:57:20.768Z,17.35
2022-11-12T23:59:48.737Z,17.34
